Dades de l'estació automàtica Port de Barcelona - Bocana Sud

?
?

Resum diari

18:00 TU
Dades diàries de l'estació meteorològica
Ratxa màxima del vent (10 m) 74.9 km/h - 279º 8:36 TU

El tram horari està expressat en Temps Universal (TU). Cal sumar una hora en horari d'hivern i dues en horari d'estiu per passar a l'hora oficial.

Port de Barcelona - Bocana Sud

Metadades estació meteorològica
Municipi El Prat de Llobregat
Comarca Baix Llobregat
Altitud 3 m
Data alta 08.04.2015
Estat actual Operativa
Dades de període
Període
TU
VVM (10 m)
km/h
DVM (10 m)
graus
VVX (10 m)
km/h
00:00 - 00:30 7.6 313 12.6
00:30 - 01:00 18.4 262 38.2
01:00 - 01:30 29.9 230 36.7
01:30 - 02:00 28.8 234 40.7
02:00 - 02:30 24.1 243 36.7
02:30 - 03:00 28.1 240 40.3
03:00 - 03:30 29.2 242 42.1
03:30 - 04:00 32.0 243 45.7
04:00 - 04:30 35.3 243 50.8
04:30 - 05:00 34.2 243 56.9
05:00 - 05:30 25.6 249 38.2
05:30 - 06:00 32.4 247 52.2
06:00 - 06:30 28.4 241 41.4
06:30 - 07:00 23.8 244 37.4
07:00 - 07:30 28.8 235 38.9
07:30 - 08:00 28.1 231 37.4
08:00 - 08:30 33.8 239 50.4
08:30 - 09:00 41.4 281 74.9
09:00 - 09:30 18.4 281 37.1
09:30 - 10:00 19.8 246 27.7
10:00 - 10:30 29.5 240 42.5
10:30 - 11:00 29.5 236 42.1
11:00 - 11:30 25.2 244 49.3
11:30 - 12:00 34.9 259 52.6
12:00 - 12:30 35.6 263 65.5
12:30 - 13:00 37.1 265 57.2
13:00 - 13:30 45.7 272 69.1
13:30 - 14:00 37.8 274 68.0
14:00 - 14:30 32.8 281 57.2
14:30 - 15:00 24.5 279 46.8
15:00 - 15:30 9.7 268 31.0
15:30 - 16:00 22.7 285 48.6
16:00 - 16:30 29.2 279 51.5
16:30 - 17:00 25.6 285 44.3
17:00 - 17:30 27.4 292 42.5
17:30 - 18:00 32.4 274 49.3
18:00 - 18:30 30.6 268 50.4
18:30 - 19:00 (s/d) (s/d) (s/d)
19:00 - 19:30 (s/d) (s/d) (s/d)

Les dades en taronja només han passat un control de qualitat automàtic. Resta pendent la seva validació definitiva.